createdAt,value
2022-08-21T00:00:21.526Z,1.58
2022-08-21T00:03:02.141Z,1.38
2022-08-21T00:05:32.781Z,1.15
2022-08-21T00:07:59.694Z,1.50
2022-08-21T00:10:28.768Z,1.15
2022-08-21T00:12:55.366Z,1.50
2022-08-21T00:15:27.278Z,1.27
2022-08-21T00:17:54.813Z,1.23
2022-08-21T00:20:24.740Z,1.48
2022-08-21T00:22:54.555Z,1.20
2022-08-21T00:25:26.419Z,1.33
2022-08-21T00:27:53.577Z,1.30
2022-08-21T00:30:23.302Z,1.42
2022-08-21T00:32:51.963Z,1.50
2022-08-21T00:35:21.104Z,1.30
2022-08-21T00:37:47.737Z,1.40
2022-08-21T00:40:20.151Z,1.42
2022-08-21T00:42:53.353Z,1.13
2022-08-21T00:45:23.911Z,1.10
2022-08-21T00:47:51.795Z,1.17
2022-08-21T00:50:21.849Z,1.20
2022-08-21T00:52:50.727Z,1.40
2022-08-21T00:55:19.467Z,1.27
2022-08-21T00:57:50.322Z,1.70
2022-08-21T01:00:21.333Z,1.48
2022-08-21T01:02:48.110Z,1.40
2022-08-21T01:05:14.843Z,1.40
2022-08-21T01:07:45.742Z,1.27
2022-08-21T01:10:20.564Z,1.30
2022-08-21T01:12:52.620Z,1.33
2022-08-21T01:15:19.303Z,1.48
2022-08-21T01:17:45.797Z,1.50
2022-08-21T01:20:12.718Z,1.67
2022-08-21T01:22:39.555Z,1.40
2022-08-21T01:25:08.118Z,1.58
2022-08-21T01:27:37.031Z,1.48
2022-08-21T01:30:11.775Z,1.30
2022-08-21T01:32:38.218Z,1.40
2022-08-21T01:35:05.653Z,1.35
2022-08-21T01:37:32.226Z,1.30
2022-08-21T01:40:01.088Z,1.67
2022-08-21T01:42:32.591Z,1.65
2022-08-21T01:44:59.031Z,1.40
2022-08-21T01:47:25.596Z,1.40
2022-08-21T01:49:52.300Z,1.38
2022-08-21T01:52:19.153Z,1.50
2022-08-21T01:54:46.248Z,1.35
2022-08-21T01:57:21.910Z,1.48
2022-08-21T01:59:49.923Z,1.40
2022-08-21T02:02:16.498Z,1.25
2022-08-21T02:04:42.995Z,1.30
2022-08-21T02:07:13.689Z,1.50
2022-08-21T02:09:40.352Z,1.50
2022-08-21T02:12:09.376Z,1.50
2022-08-21T02:14:35.968Z,1.60
2022-08-21T02:17:08.931Z,1.10
2022-08-21T02:19:40.822Z,1.63
2022-08-21T02:22:09.665Z,1.30
2022-08-21T02:24:50.604Z,1.90
2022-08-21T02:27:25.956Z,1.48
2022-08-21T02:29:58.587Z,1.90
2022-08-21T02:32:28.485Z,1.63
2022-08-21T02:34:55.022Z,1.60
2022-08-21T02:37:21.787Z,1.50
2022-08-21T02:39:50.660Z,1.48
2022-08-21T02:42:17.195Z,1.50
2022-08-21T02:44:43.631Z,1.80
2022-08-21T02:47:12.314Z,1.50
2022-08-21T02:49:42.129Z,1.48
2022-08-21T02:52:08.544Z,1.40
2022-08-21T02:54:34.977Z,1.70
2022-08-21T02:57:01.412Z,1.40
2022-08-21T02:59:29.983Z,1.80
2022-08-21T03:01:58.595Z,1.30
2022-08-21T03:04:25.083Z,1.70
2022-08-21T03:06:52.063Z,1.38
2022-08-21T03:09:18.495Z,1.25
2022-08-21T03:11:45.185Z,1.65
2022-08-21T03:14:13.917Z,1.27
2022-08-21T03:16:40.410Z,1.70
2022-08-21T03:19:06.859Z,1.23
2022-08-21T03:21:34.136Z,1.40
2022-08-21T03:24:04.166Z,1.40
2022-08-21T03:26:33.669Z,1.90
2022-08-21T03:29:00.776Z,1.40
2022-08-21T03:31:32.411Z,1.80
2022-08-21T03:34:01.315Z,1.60
2022-08-21T03:36:32.533Z,1.73
2022-08-21T03:38:59.004Z,1.70
2022-08-21T03:41:25.455Z,1.65
2022-08-21T03:43:51.897Z,2.15
2022-08-21T03:46:20.772Z,1.65
2022-08-21T03:48:48.298Z,1.88
2022-08-21T03:51:17.248Z,1.45
2022-08-21T03:53:43.711Z,1.58
2022-08-21T03:56:10.237Z,1.83
2022-08-21T03:58:36.964Z,1.50
2022-08-21T04:01:05.222Z,1.70
2022-08-21T04:03:31.640Z,1.95
2022-08-21T04:06:02.987Z,1.85
2022-08-21T04:08:31.701Z,1.30
2022-08-21T04:10:59.214Z,1.92
2022-08-21T04:13:27.616Z,2.00
2022-08-21T04:15:57.762Z,1.70
2022-08-21T04:18:24.271Z,1.85
2022-08-21T04:20:55.465Z,1.67
2022-08-21T04:23:23.545Z,2.00
2022-08-21T04:25:51.501Z,1.50
2022-08-21T04:28:17.900Z,1.75
2022-08-21T04:30:45.621Z,2.15
2022-08-21T04:33:12.064Z,1.60
2022-08-21T04:35:42.964Z,1.73
2022-08-21T04:38:09.446Z,1.63
2022-08-21T04:40:38.262Z,1.55
2022-08-21T04:43:06.985Z,1.67
2022-08-21T04:45:37.677Z,1.95
2022-08-21T04:48:13.319Z,1.60
2022-08-21T04:50:40.401Z,1.80
2022-08-21T04:53:09.397Z,1.60
2022-08-21T04:55:36.148Z,1.75
2022-08-21T04:58:02.921Z,1.87
2022-08-21T05:00:31.633Z,1.80
2022-08-21T05:03:01.079Z,1.73
2022-08-21T05:05:30.282Z,1.58
2022-08-21T05:08:00.427Z,2.10
2022-08-21T05:10:28.467Z,1.70
2022-08-21T05:12:55.343Z,1.77
2022-08-21T05:15:21.908Z,1.90
2022-08-21T05:17:52.590Z,2.00
2022-08-21T05:20:27.370Z,1.88
2022-08-21T05:22:53.937Z,2.10
2022-08-21T05:25:22.315Z,2.15
2022-08-21T05:27:50.166Z,2.17
2022-08-21T05:30:21.715Z,1.90
2022-08-21T05:32:48.666Z,2.30
2022-08-21T05:35:20.032Z,1.75
2022-08-21T05:37:46.977Z,1.80
2022-08-21T05:40:22.530Z,1.90
2022-08-21T05:42:56.260Z,2.05
2022-08-21T05:45:41.321Z,2.05
2022-08-21T05:48:26.945Z,1.73
2022-08-21T05:50:56.030Z,2.13
2022-08-21T05:53:23.558Z,1.65
2022-08-21T05:55:50.689Z,1.67
2022-08-21T05:58:19.483Z,1.92
2022-08-21T06:00:48.373Z,1.40
2022-08-21T06:03:18.438Z,1.80
2022-08-21T06:05:45.153Z,1.70
2022-08-21T06:08:15.793Z,1.90
2022-08-21T06:10:45.483Z,2.22
2022-08-21T06:13:12.736Z,1.83
2022-08-21T06:15:39.179Z,1.98
2022-08-21T06:18:10.966Z,2.13
2022-08-21T06:20:40.272Z,1.58
2022-08-21T06:23:06.756Z,1.55
2022-08-21T06:25:35.650Z,1.33
2022-08-21T06:28:13.541Z,1.77
2022-08-21T06:30:40.546Z,1.98
2022-08-21T06:33:10.964Z,1.90
2022-08-21T06:35:37.925Z,1.50
2022-08-21T06:38:08.261Z,2.83
2022-08-21T06:40:38.997Z,2.38
2022-08-21T06:43:15.367Z,1.90
2022-08-21T06:45:42.375Z,1.92
2022-08-21T06:48:08.894Z,2.08
2022-08-21T06:50:37.627Z,1.73
2022-08-21T06:53:10.500Z,1.63
2022-08-21T06:55:37.946Z,1.77
2022-08-21T06:58:07.652Z,1.50
2022-08-21T07:00:35.781Z,1.48
2022-08-21T07:03:02.536Z,2.22
2022-08-21T07:05:34.246Z,2.85
2022-08-21T07:08:00.732Z,2.20
2022-08-21T07:10:27.667Z,2.63
2022-08-21T07:13:00.839Z,2.50
2022-08-21T07:15:30.835Z,2.30
2022-08-21T07:17:59.419Z,2.50
2022-08-21T07:20:26.956Z,2.60
2022-08-21T07:22:53.425Z,2.42
2022-08-21T07:25:20.591Z,2.40
2022-08-21T07:27:47.017Z,2.40
2022-08-21T07:30:13.599Z,2.55
2022-08-21T07:32:40.023Z,2.65
2022-08-21T07:35:09.168Z,2.10
2022-08-21T07:37:35.945Z,2.15
2022-08-21T07:40:04.803Z,2.13
2022-08-21T07:42:31.312Z,2.22
2022-08-21T07:44:57.724Z,2.80
2022-08-21T07:47:41.457Z,2.60
2022-08-21T07:50:10.735Z,2.28
2022-08-21T07:52:37.896Z,2.10
2022-08-21T07:55:07.320Z,1.92
2022-08-21T07:57:34.158Z,2.03
2022-08-21T08:00:04.697Z,1.90
2022-08-21T08:02:31.549Z,2.20
2022-08-21T08:05:04.920Z,2.20
2022-08-21T08:07:31.727Z,2.28
2022-08-21T08:09:59.411Z,2.35
2022-08-21T08:12:30.254Z,2.00
2022-08-21T08:15:02.820Z,2.13
2022-08-21T08:17:29.407Z,2.50
2022-08-21T08:19:56.304Z,2.50
2022-08-21T08:22:26.564Z,2.00
2022-08-21T08:24:53.746Z,2.25
2022-08-21T08:27:20.542Z,2.38
2022-08-21T08:29:47.754Z,1.92
2022-08-21T08:32:14.373Z,1.90
2022-08-21T08:34:40.864Z,2.17
2022-08-21T08:37:11.943Z,2.17
2022-08-21T08:39:39.055Z,2.10
2022-08-21T08:42:34.016Z,2.30
2022-08-21T08:45:27.093Z,2.00
2022-08-21T08:47:58.931Z,2.10
2022-08-21T08:50:28.942Z,1.92
2022-08-21T08:53:01.995Z,2.20
2022-08-21T08:55:40.977Z,2.35
2022-08-21T08:58:08.379Z,2.22
2022-08-21T09:00:34.903Z,2.17
2022-08-21T09:03:05.757Z,1.98
2022-08-21T09:05:47.669Z,2.15
2022-08-21T09:08:51.432Z,2.40
2022-08-21T09:11:32.428Z,2.70
2022-08-21T09:14:36.416Z,2.10
2022-08-21T09:17:24.792Z,2.40
2022-08-21T09:19:54.193Z,2.30
2022-08-21T09:22:25.848Z,2.40
2022-08-21T09:25:19.204Z,2.40
2022-08-21T09:27:50.968Z,2.22
2022-08-21T09:30:18.021Z,2.20
2022-08-21T09:32:44.556Z,2.40
2022-08-21T09:35:20.861Z,2.63
2022-08-21T09:38:01.967Z,2.10
2022-08-21T09:40:42.687Z,2.15
2022-08-21T09:43:11.861Z,2.30
2022-08-21T09:45:39.746Z,2.60
2022-08-21T09:48:13.597Z,2.40
2022-08-21T09:50:41.117Z,2.42
2022-08-21T09:53:18.543Z,2.33
2022-08-21T09:56:09.043Z,2.40
2022-08-21T09:58:38.191Z,2.38
2022-08-21T10:01:09.467Z,2.17
2022-08-21T10:03:36.031Z,1.80
2022-08-21T10:06:11.640Z,2.63
2022-08-21T10:08:41.754Z,2.70
2022-08-21T10:11:11.711Z,2.25
2022-08-21T10:13:38.092Z,2.15
2022-08-21T10:16:14.197Z,2.42
2022-08-21T10:18:43.460Z,2.13
2022-08-21T10:21:31.689Z,2.28
2022-08-21T10:24:36.783Z,2.33
2022-08-21T10:27:09.491Z,2.30
2022-08-21T10:30:15.662Z,2.40
2022-08-21T10:33:06.024Z,2.00
2022-08-21T10:35:40.854Z,2.08
2022-08-21T10:38:50.238Z,2.38
2022-08-21T10:41:22.168Z,2.00
2022-08-21T10:43:54.204Z,2.20
2022-08-21T10:46:51.340Z,1.70
2022-08-21T10:49:23.883Z,2.80
2022-08-21T10:52:17.621Z,2.45
2022-08-21T10:54:51.245Z,2.45
2022-08-21T10:57:32.424Z,2.40
2022-08-21T11:00:29.064Z,1.92
2022-08-21T11:03:07.195Z,2.50
2022-08-21T11:05:50.120Z,3.08
2022-08-21T11:08:25.334Z,3.30
2022-08-21T11:10:59.308Z,3.20
2022-08-21T11:13:38.636Z,2.83
2022-08-21T11:16:31.312Z,3.40
2022-08-21T11:19:32.035Z,2.72
2022-08-21T11:22:19.235Z,2.15
2022-08-21T11:25:00.766Z,2.20
2022-08-21T11:27:35.456Z,2.00
2022-08-21T11:30:02.644Z,1.85
2022-08-21T11:32:52.265Z,2.05
2022-08-21T11:35:24.746Z,2.20
2022-08-21T11:38:28.828Z,2.15
2022-08-21T11:41:23.760Z,1.90
2022-08-21T11:43:54.804Z,2.20
2022-08-21T11:46:49.517Z,2.28
2022-08-21T11:49:31.947Z,2.70
2022-08-21T11:52:19.562Z,2.55
2022-08-21T11:55:09.154Z,2.38
2022-08-21T11:57:53.994Z,2.58
2022-08-21T12:00:37.475Z,2.80
2022-08-21T12:03:15.666Z,2.25
2022-08-21T12:05:45.887Z,2.70
2022-08-21T12:08:12.279Z,2.60
2022-08-21T12:10:41.840Z,2.75
2022-08-21T12:13:40.602Z,3.10
2022-08-21T12:16:16.903Z,2.63
2022-08-21T12:18:45.886Z,2.80
2022-08-21T12:21:27.546Z,2.55
2022-08-21T12:24:06.581Z,2.47
2022-08-21T12:26:54.140Z,2.20
2022-08-21T12:29:26.490Z,2.72
2022-08-21T12:32:23.556Z,2.35
2022-08-21T12:34:58.929Z,2.30
2022-08-21T12:37:37.554Z,2.58
2022-08-21T12:40:09.106Z,2.88
2022-08-21T12:42:40.750Z,2.50
2022-08-21T12:45:18.916Z,2.70
2022-08-21T12:47:54.552Z,2.50
2022-08-21T12:50:23.951Z,2.60
2022-08-21T12:53:03.426Z,2.13
2022-08-21T12:55:32.918Z,2.60
2022-08-21T12:57:59.570Z,2.47
2022-08-21T13:00:27.912Z,2.60
2022-08-21T13:02:55.541Z,2.67
2022-08-21T13:05:24.978Z,2.50
2022-08-21T13:07:54.003Z,2.72
2022-08-21T13:10:24.992Z,2.53
2022-08-21T13:12:56.357Z,2.20
2022-08-21T13:15:37.302Z,2.20
2022-08-21T13:18:08.179Z,2.33
2022-08-21T13:20:39.569Z,2.40
2022-08-21T13:23:25.987Z,2.65
2022-08-21T13:25:53.068Z,2.35
2022-08-21T13:28:19.493Z,2.47
2022-08-21T13:30:48.675Z,2.70
2022-08-21T13:33:37.296Z,2.50
2022-08-21T13:36:06.752Z,2.70
2022-08-21T13:38:35.681Z,2.75
2022-08-21T13:41:11.446Z,2.80
2022-08-21T13:43:38.062Z,2.47
2022-08-21T13:46:13.719Z,2.10
2022-08-21T13:48:40.372Z,2.22
2022-08-21T13:51:07.371Z,2.17
2022-08-21T13:53:45.798Z,2.55
2022-08-21T13:56:23.984Z,2.50
2022-08-21T13:58:52.702Z,2.58
2022-08-21T14:01:34.637Z,2.17
2022-08-21T14:04:08.901Z,2.85
2022-08-21T14:06:38.064Z,3.13
2022-08-21T14:09:27.772Z,2.63
2022-08-21T14:11:57.914Z,2.72
2022-08-21T14:14:27.640Z,2.75
2022-08-21T14:17:06.306Z,2.67
2022-08-21T14:19:50.805Z,1.70
2022-08-21T14:22:23.393Z,2.03
2022-08-21T14:24:49.983Z,2.55
2022-08-21T14:27:24.106Z,2.88
2022-08-21T14:29:58.072Z,2.97
2022-08-21T14:32:29.277Z,2.95
2022-08-21T14:34:58.036Z,2.38
2022-08-21T14:37:26.575Z,2.95
2022-08-21T14:39:55.343Z,2.50
2022-08-21T14:42:24.807Z,2.70
2022-08-21T14:44:55.007Z,2.30
2022-08-21T14:47:26.301Z,2.70
2022-08-21T14:49:55.867Z,2.85
2022-08-21T14:52:23.785Z,2.95
2022-08-21T14:54:50.490Z,2.60
2022-08-21T14:57:19.476Z,2.97
2022-08-21T14:59:49.161Z,2.20
2022-08-21T15:02:18.107Z,2.40
2022-08-21T15:04:44.587Z,2.22
2022-08-21T15:07:11.040Z,2.25
2022-08-21T15:09:37.895Z,2.50
2022-08-21T15:12:05.205Z,2.20
2022-08-21T15:14:34.307Z,2.15
2022-08-21T15:17:00.743Z,1.98
2022-08-21T15:19:28.280Z,2.08
2022-08-21T15:21:54.837Z,2.03
2022-08-21T15:24:21.264Z,2.30
2022-08-21T15:26:48.311Z,2.08
2022-08-21T15:29:15.384Z,1.73
2022-08-21T15:32:00.740Z,2.15
2022-08-21T15:34:29.051Z,1.67
2022-08-21T15:37:01.079Z,2.38
2022-08-21T15:39:30.228Z,2.45
2022-08-21T15:42:11.344Z,2.10
2022-08-21T15:44:42.090Z,2.40
2022-08-21T15:47:15.418Z,2.10
2022-08-21T15:49:45.865Z,1.90
2022-08-21T15:52:18.722Z,1.80
2022-08-21T15:54:45.439Z,1.90
2022-08-21T15:57:14.795Z,1.73
2022-08-21T15:59:46.645Z,1.83
2022-08-21T16:02:16.981Z,2.10
2022-08-21T16:04:43.452Z,2.00
2022-08-21T16:07:10.536Z,1.80
2022-08-21T16:09:37.131Z,2.15
2022-08-21T16:12:05.442Z,2.78
2022-08-21T16:14:37.291Z,2.20
2022-08-21T16:17:08.003Z,2.05
2022-08-21T16:19:35.089Z,2.40
2022-08-21T16:22:01.812Z,2.30
2022-08-21T16:24:30.573Z,2.10
2022-08-21T16:26:58.347Z,2.05
2022-08-21T16:29:32.202Z,2.55
2022-08-21T16:31:58.639Z,2.28
2022-08-21T16:34:25.532Z,2.40
2022-08-21T16:36:56.777Z,2.45
2022-08-21T16:39:27.811Z,2.17
2022-08-21T16:41:54.320Z,2.40
2022-08-21T16:44:22.820Z,2.20
2022-08-21T16:46:49.792Z,2.75
2022-08-21T16:49:16.355Z,2.15
2022-08-21T16:51:43.488Z,2.20
2022-08-21T16:54:13.847Z,2.10
2022-08-21T16:56:47.042Z,2.50
2022-08-21T16:59:14.216Z,2.20
2022-08-21T17:01:42.440Z,2.65
2022-08-21T17:04:10.000Z,2.20
2022-08-21T17:06:36.560Z,2.60
2022-08-21T17:09:05.389Z,2.40
2022-08-21T17:11:47.578Z,2.25
2022-08-21T17:14:17.603Z,2.20
2022-08-21T17:16:48.364Z,2.13
2022-08-21T17:19:18.363Z,1.90
2022-08-21T17:21:47.368Z,2.30
2022-08-21T17:24:15.481Z,2.38
2022-08-21T17:26:43.283Z,2.13
2022-08-21T17:29:12.429Z,2.10
2022-08-21T17:31:40.247Z,1.98
2022-08-21T17:34:07.083Z,1.98
2022-08-21T17:36:34.034Z,2.35
2022-08-21T17:39:00.506Z,2.00
2022-08-21T17:41:27.106Z,1.80
2022-08-21T17:43:54.979Z,2.42
2022-08-21T17:46:28.639Z,2.15
2022-08-21T17:48:56.060Z,2.28
2022-08-21T17:51:22.733Z,2.75
2022-08-21T17:53:49.299Z,2.03
2022-08-21T17:56:17.808Z,2.63
2022-08-21T17:58:48.550Z,1.80
2022-08-21T18:01:17.276Z,2.03
2022-08-21T18:03:43.752Z,2.00
2022-08-21T18:06:12.350Z,2.17
2022-08-21T18:08:42.020Z,1.75
2022-08-21T18:11:23.061Z,2.22
2022-08-21T18:13:50.937Z,2.30
2022-08-21T18:16:19.396Z,2.33
2022-08-21T18:18:48.868Z,2.45
2022-08-21T18:21:15.708Z,2.42
2022-08-21T18:23:45.146Z,2.10
2022-08-21T18:26:17.267Z,1.70
2022-08-21T18:28:44.187Z,1.90
2022-08-21T18:31:13.523Z,2.42
2022-08-21T18:33:57.559Z,4.38
2022-08-21T18:36:27.760Z,4.90
2022-08-21T18:39:04.621Z,4.53
2022-08-21T18:41:46.265Z,2.67
2022-08-21T18:44:16.879Z,2.28
2022-08-21T18:46:56.305Z,2.17
2022-08-21T18:49:25.106Z,2.30
2022-08-21T18:51:51.595Z,1.83
2022-08-21T18:54:23.092Z,1.67
2022-08-21T18:56:54.370Z,1.80
2022-08-21T18:59:28.364Z,1.70
2022-08-21T19:01:55.420Z,1.70
2022-08-21T19:04:43.062Z,1.90
2022-08-21T19:07:13.552Z,1.70
2022-08-21T19:09:41.139Z,1.45
2022-08-21T19:12:11.507Z,1.83
2022-08-21T19:14:46.640Z,1.80
2022-08-21T19:17:13.416Z,2.03
2022-08-21T19:19:42.344Z,1.60
2022-08-21T19:22:11.958Z,1.40
2022-08-21T19:24:49.861Z,1.80
2022-08-21T19:27:19.440Z,1.65
2022-08-21T19:29:48.320Z,1.80
2022-08-21T19:32:18.320Z,1.83
2022-08-21T19:34:44.789Z,1.63
2022-08-21T19:37:16.168Z,1.50
2022-08-21T19:39:50.029Z,1.77
2022-08-21T19:42:21.321Z,2.13
2022-08-21T19:44:55.526Z,2.00
2022-08-21T19:47:29.538Z,1.90
2022-08-21T19:49:58.009Z,1.90
2022-08-21T19:52:24.536Z,1.92
2022-08-21T19:54:51.153Z,1.77
2022-08-21T19:57:17.855Z,1.95
2022-08-21T19:59:46.772Z,1.75
2022-08-21T20:02:19.651Z,1.83
2022-08-21T20:04:54.034Z,2.10
2022-08-21T20:10:10.912Z,1.77
2022-08-21T20:12:40.863Z,1.80
2022-08-21T20:15:07.984Z,1.95
2022-08-21T20:17:34.631Z,1.77
2022-08-21T20:20:01.049Z,2.00
2022-08-21T20:22:30.153Z,2.10
2022-08-21T20:24:56.587Z,2.00
2022-08-21T20:27:29.542Z,1.70
2022-08-21T20:29:56.017Z,1.88
2022-08-21T20:32:24.918Z,1.67
2022-08-21T20:34:55.228Z,2.00
2022-08-21T20:37:36.663Z,2.00
2022-08-21T20:40:11.581Z,1.90
2022-08-21T20:42:48.160Z,1.95
2022-08-21T20:45:23.197Z,1.80
2022-08-21T20:47:52.652Z,1.88
2022-08-21T20:50:24.111Z,1.70
2022-08-21T20:52:52.570Z,1.33
2022-08-21T20:55:29.279Z,1.52
2022-08-21T20:57:59.520Z,1.73
2022-08-21T21:00:30.235Z,1.65
2022-08-21T21:03:09.234Z,1.52
2022-08-21T21:05:48.911Z,1.70
2022-08-21T21:08:25.254Z,1.48
2022-08-21T21:11:04.103Z,2.03
2022-08-21T21:13:49.700Z,1.67
2022-08-21T21:16:16.083Z,1.80
2022-08-21T21:18:53.479Z,1.52
2022-08-21T21:21:33.661Z,1.83
2022-08-21T21:24:12.623Z,1.70
2022-08-21T21:26:48.707Z,1.65
2022-08-21T21:29:29.808Z,1.90
2022-08-21T21:31:58.717Z,1.58
2022-08-21T21:34:27.890Z,1.48
2022-08-21T21:37:00.285Z,1.70
2022-08-21T21:39:36.078Z,1.70
2022-08-21T21:42:30.064Z,1.52
2022-08-21T21:45:54.859Z,1.60
2022-08-21T21:48:45.517Z,1.52
2022-08-21T21:51:25.797Z,1.70
2022-08-21T21:53:58.253Z,1.60
2022-08-21T21:56:35.659Z,1.40
2022-08-21T21:59:15.371Z,1.70
2022-08-21T22:01:49.740Z,1.80
2022-08-21T22:07:39.944Z,1.50
2022-08-21T22:10:19.645Z,1.70
2022-08-21T22:13:23.493Z,1.80
2022-08-21T22:15:54.368Z,1.73
2022-08-21T22:18:27.510Z,1.48
2022-08-21T22:20:55.569Z,1.55
2022-08-21T22:23:29.105Z,1.48
2022-08-21T22:26:04.462Z,1.90
2022-08-21T22:28:33.191Z,1.63
2022-08-21T22:31:14.617Z,1.60
2022-08-21T22:34:00.120Z,2.08
2022-08-21T22:36:35.716Z,1.48
2022-08-21T22:39:11.352Z,1.60
2022-08-21T22:41:41.444Z,1.58
2022-08-21T22:44:19.068Z,1.38
2022-08-21T22:46:49.208Z,1.70
2022-08-21T22:49:43.990Z,1.60
2022-08-21T22:52:31.187Z,1.50
2022-08-21T22:55:01.719Z,1.85
2022-08-21T22:57:35.099Z,2.00
2022-08-21T23:00:01.540Z,1.50
2022-08-21T23:02:39.371Z,1.95
2022-08-21T23:05:18.469Z,1.65
2022-08-21T23:07:49.895Z,1.60
2022-08-21T23:10:26.162Z,1.88
2022-08-21T23:12:59.968Z,1.95
2022-08-21T23:15:33.726Z,1.60
2022-08-21T23:18:16.618Z,1.60
2022-08-21T23:21:06.460Z,1.60
2022-08-21T23:23:39.793Z,2.03
2022-08-21T23:26:25.265Z,1.85
2022-08-21T23:29:04.860Z,1.95
2022-08-21T23:32:13.335Z,1.80
2022-08-21T23:34:58.591Z,1.80
2022-08-21T23:37:53.745Z,1.65
2022-08-21T23:40:51.110Z,1.73
2022-08-21T23:43:44.011Z,1.80
2022-08-21T23:46:32.363Z,1.65
2022-08-21T23:49:32.332Z,1.73
2022-08-21T23:52:28.274Z,1.65
2022-08-21T23:55:27.867Z,1.67
2022-08-21T23:58:06.363Z,1.90
